Time;durP1;ratioP1;P1;durP2;ratioP2;P2;SDS_P1;SDS_P2;PMS_P1;PMS_P2;Temp;Humidity;BMP_temperature;BMP_pressure;BME280_temperature;BME280_humidity;BME280_pressure;Samples;Min_cycle;Max_cycle;Signal;HPM_P1;HPM_P2
2022/01/06 00:00:40;;;;;;;;;;;4.30;99.90;;;;;;5097216;28;19925;-80
2022/01/06 00:03:06;;;;;;;;;;;4.30;99.90;;;;;;5089470;28;19924;-79
2022/01/06 00:05:33;;;;;;;;;;;4.40;99.90;;;;;;5089348;28;19924;-79
2022/01/06 00:08:01;;;;;;;;;;;4.10;99.90;;;;;;5088735;28;19962;-80
2022/01/06 00:10:29;;;;;;;;;;;4.10;99.90;;;;;;5095372;28;20034;-80
2022/01/06 00:13:07;;;;;;;;;;;3.90;99.90;;;;;;5094518;28;19925;-78
2022/01/06 00:15:39;;;;;;;;;;;3.90;99.90;;;;;;5094769;28;19924;-79
2022/01/06 00:18:28;;;;;;;;;;;4.20;99.90;;;;;;5091640;28;19956;-79
2022/01/06 00:23:39;;;;;;;;;;;4.40;99.90;;;;;;5082904;28;19957;-80
2022/01/06 00:26:06;;;;;;;;;;;4.40;99.90;;;;;;5088791;28;19924;-79
2022/01/06 00:28:33;;;;;;;;;;;4.20;99.90;;;;;;5091629;28;19925;-81
2022/01/06 00:31:01;;;;;;;;;;;4.30;99.90;;;;;;5082652;28;20311;-80
2022/01/06 00:33:31;;;;;;;;;;;4.30;99.90;;;;;;5081879;28;19935;-79
2022/01/06 00:35:57;;;;;;;;;;;4.30;99.90;;;;;;5081749;28;19929;-80
2022/01/06 00:38:25;;;;;;;;;;;4.20;99.90;;;;;;5081670;28;19963;-80
2022/01/06 00:40:52;;;;;;;;;;;4.10;99.90;;;;;;5083521;28;19924;-78
2022/01/06 00:43:19;;;;;;;;;;;3.90;99.90;;;;;;5084653;28;19925;-78
2022/01/06 00:45:45;;;;;;;;;;;4.00;99.90;;;;;;5086649;28;19962;-79
2022/01/06 00:48:12;;;;;;;;;;;3.80;99.90;;;;;;5083787;28;19954;-80
2022/01/06 00:50:41;;;;;;;;;;;3.70;99.90;;;;;;5081854;28;19950;-82
2022/01/06 00:53:08;;;;;;;;;;;3.70;99.90;;;;;;5084816;28;19960;-80
2022/01/06 00:55:35;;;;;;;;;;;3.70;99.90;;;;;;5087663;28;20318;-81
2022/01/06 00:58:02;;;;;;;;;;;3.20;99.90;;;;;;5086345;28;19925;-81
2022/01/06 01:00:37;;;;;;;;;;;3.30;99.90;;;;;;5082479;28;19928;-80
2022/01/06 01:03:04;;;;;;;;;;;3.10;99.90;;;;;;5085103;28;19924;-80
2022/01/06 01:05:31;;;;;;;;;;;2.80;99.90;;;;;;5083641;28;19931;-80
2022/01/06 01:07:59;;;;;;;;;;;3.30;99.90;;;;;;5084477;28;19929;-79
2022/01/06 01:10:25;;;;;;;;;;;3.00;99.90;;;;;;5085350;28;19924;-80
2022/01/06 01:12:52;;;;;;;;;;;2.80;99.90;;;;;;5082733;28;19970;-79
2022/01/06 01:15:20;;;;;;;;;;;3.00;99.90;;;;;;5080248;28;19985;-79
2022/01/06 01:17:48;;;;;;;;;;;2.60;99.90;;;;;;5085722;28;19963;-79
2022/01/06 01:20:15;;;;;;;;;;;2.90;99.90;;;;;;5088589;28;19931;-78
2022/01/06 01:22:41;;;;;;;;;;;2.70;99.90;;;;;;5087761;28;19931;-78
2022/01/06 01:25:09;;;;;;;;;;;2.90;99.90;;;;;;5087036;28;19976;-80
2022/01/06 01:27:40;;;;;;;;;;;3.00;99.90;;;;;;5082228;28;20407;-80
2022/01/06 01:30:10;;;;;;;;;;;2.80;99.90;;;;;;5082110;28;19962;-80
2022/01/06 01:32:38;;;;;;;;;;;2.80;99.90;;;;;;5083119;28;20027;-80
2022/01/06 01:35:05;;;;;;;;;;;2.80;99.90;;;;;;5082028;28;19925;-81
2022/01/06 01:37:32;;;;;;;;;;;2.60;99.90;;;;;;5082024;28;19924;-80
2022/01/06 01:39:58;;;;;;;;;;;2.60;99.90;;;;;;5082123;28;19998;-80
2022/01/06 01:42:26;;;;;;;;;;;2.30;99.90;;;;;;5081519;28;19925;-80
2022/01/06 01:44:53;;;;;;;;;;;2.30;99.90;;;;;;5081507;28;19924;-79
2022/01/06 01:47:28;;;;;;;;;;;2.30;99.90;;;;;;5081457;28;19924;-80
2022/01/06 01:49:59;;;;;;;;;;;2.40;99.90;;;;;;5081149;28;19925;-79
2022/01/06 01:52:25;;;;;;;;;;;2.00;99.90;;;;;;5081483;28;19997;-80
2022/01/06 01:54:52;;;;;;;;;;;2.30;99.90;;;;;;5081543;28;19929;-80
2022/01/06 01:57:18;;;;;;;;;;;2.00;99.90;;;;;;5081233;28;20352;-79
2022/01/06 01:59:46;;;;;;;;;;;2.10;99.90;;;;;;5081304;28;19967;-81
2022/01/06 02:02:13;;;;;;;;;;;2.30;99.90;;;;;;5081516;28;19952;-80
2022/01/06 02:04:39;;;;;;;;;;;2.00;99.90;;;;;;5081573;28;20348;-80
2022/01/06 02:07:05;;;;;;;;;;;2.30;99.90;;;;;;5079689;28;19947;-79
2022/01/06 02:09:32;;;;;;;;;;;2.30;99.90;;;;;;5081118;28;19931;-80
2022/01/06 02:11:58;;;;;;;;;;;2.20;99.90;;;;;;5080791;28;19978;-79
2022/01/06 02:14:26;;;;;;;;;;;2.30;99.90;;;;;;5080545;28;19928;-81
2022/01/06 02:16:54;;;;;;;;;;;2.30;99.90;;;;;;5079730;28;19924;-81
2022/01/06 02:19:21;;;;;;;;;;;2.10;99.90;;;;;;5081372;28;20398;-81
2022/01/06 02:21:49;;;;;;;;;;;2.20;99.90;;;;;;5081612;28;19924;-80
2022/01/06 02:24:15;;;;;;;;;;;2.40;99.90;;;;;;5097698;28;19931;-79
2022/01/06 02:26:42;;;;;;;;;;;2.40;99.90;;;;;;5089883;28;19971;-79
2022/01/06 02:29:08;;;;;;;;;;;2.20;99.90;;;;;;5083909;28;19924;-79
2022/01/06 02:31:42;;;;;;;;;;;2.20;99.90;;;;;;5084162;28;19978;-79
2022/01/06 02:34:09;;;;;;;;;;;2.50;99.90;;;;;;5080847;28;19994;-79
2022/01/06 02:36:36;;;;;;;;;;;2.50;99.90;;;;;;5079705;28;20383;-80
2022/01/06 02:39:04;;;;;;;;;;;2.40;99.90;;;;;;5080754;28;19963;-80
2022/01/06 02:41:30;;;;;;;;;;;2.20;99.90;;;;;;5080308;28;19924;-79
2022/01/06 02:43:57;;;;;;;;;;;2.40;99.90;;;;;;5079813;28;19947;-80
2022/01/06 02:46:23;;;;;;;;;;;2.30;99.90;;;;;;5080289;28;20007;-80
2022/01/06 02:48:49;;;;;;;;;;;2.10;99.90;;;;;;5079531;28;19932;-80
2022/01/06 02:51:16;;;;;;;;;;;2.60;99.90;;;;;;5080266;28;19968;-80
2022/01/06 02:53:42;;;;;;;;;;;2.40;99.90;;;;;;5085512;28;19924;-79
2022/01/06 02:56:10;;;;;;;;;;;2.40;99.90;;;;;;5080123;28;19936;-80
2022/01/06 02:58:37;;;;;;;;;;;2.60;99.90;;;;;;5080152;28;19931;-80
2022/01/06 03:01:03;;;;;;;;;;;2.40;99.90;;;;;;5080024;28;19976;-80
2022/01/06 03:03:29;;;;;;;;;;;2.40;99.90;;;;;;5080033;28;19979;-80
2022/01/06 03:05:56;;;;;;;;;;;2.50;99.90;;;;;;5079869;28;19964;-79
2022/01/06 03:08:23;;;;;;;;;;;2.30;99.90;;;;;;5080236;28;19979;-81
2022/01/06 03:10:50;;;;;;;;;;;2.50;99.90;;;;;;5080451;28;19924;-80
2022/01/06 03:13:18;;;;;;;;;;;2.20;99.90;;;;;;5084810;28;19924;-80
2022/01/06 03:15:44;;;;;;;;;;;1.90;99.90;;;;;;5093097;28;19924;-79
2022/01/06 03:18:11;;;;;;;;;;;2.30;99.90;;;;;;5092821;28;19924;-79
2022/01/06 03:20:37;;;;;;;;;;;2.20;99.90;;;;;;5096352;28;19924;-80
2022/01/06 03:23:04;;;;;;;;;;;2.30;99.90;;;;;;5098209;28;19925;-80
2022/01/06 03:25:30;;;;;;;;;;;2.30;99.90;;;;;;5095081;28;19925;-81
2022/01/06 03:27:57;;;;;;;;;;;2.30;99.90;;;;;;5092040;28;19931;-80
2022/01/06 03:30:24;;;;;;;;;;;2.40;99.90;;;;;;5093816;28;19924;-79
2022/01/06 03:32:52;;;;;;;;;;;2.40;99.90;;;;;;5095481;28;19924;-79
2022/01/06 03:35:20;;;;;;;;;;;2.20;99.90;;;;;;5093369;28;19970;-78
2022/01/06 03:37:46;;;;;;;;;;;2.30;99.90;;;;;;5088886;28;20276;-80
2022/01/06 03:40:12;;;;;;;;;;;2.20;99.90;;;;;;5084273;28;19970;-80
2022/01/06 03:42:39;;;;;;;;;;;2.00;99.90;;;;;;5084841;28;19972;-80
2022/01/06 03:45:08;;;;;;;;;;;2.10;99.90;;;;;;5083335;28;19948;-79
2022/01/06 03:47:36;;;;;;;;;;;2.10;99.90;;;;;;5083899;28;19924;-79
2022/01/06 03:50:03;;;;;;;;;;;1.90;99.90;;;;;;5083861;28;19975;-80
2022/01/06 03:52:29;;;;;;;;;;;1.90;99.90;;;;;;5083380;28;20307;-79
2022/01/06 03:54:55;;;;;;;;;;;1.60;99.90;;;;;;5083226;28;20007;-79
2022/01/06 03:57:22;;;;;;;;;;;2.00;99.90;;;;;;5086397;28;19924;-79
2022/01/06 03:59:48;;;;;;;;;;;1.60;99.90;;;;;;5089104;28;19960;-78
2022/01/06 04:02:15;;;;;;;;;;;1.70;99.90;;;;;;5088463;28;19924;-78
2022/01/06 04:04:42;;;;;;;;;;;1.40;99.90;;;;;;5085176;28;19974;-79
2022/01/06 04:07:09;;;;;;;;;;;1.20;99.90;;;;;;5084297;28;19970;-80
2022/01/06 04:09:35;;;;;;;;;;;1.60;99.90;;;;;;5084476;28;20350;-79
2022/01/06 04:12:02;;;;;;;;;;;1.30;99.90;;;;;;5089542;28;19924;-79
2022/01/06 04:14:28;;;;;;;;;;;2.10;99.90;;;;;;5094213;28;19982;-80
2022/01/06 04:16:59;;;;;;;;;;;1.40;99.90;;;;;;5094481;28;19924;-78
2022/01/06 04:19:25;;;;;;;;;;;1.30;99.90;;;;;;5086901;28;19929;-80
2022/01/06 04:21:53;;;;;;;;;;;1.10;99.90;;;;;;5084699;28;20286;-79
2022/01/06 04:24:20;;;;;;;;;;;1.10;99.90;;;;;;5085116;28;20358;-79
2022/01/06 04:26:46;;;;;;;;;;;1.20;99.90;;;;;;5082935;28;20306;-81
2022/01/06 04:29:13;;;;;;;;;;;1.30;99.90;;;;;;5083622;28;19940;-80
2022/01/06 04:31:39;;;;;;;;;;;1.40;99.90;;;;;;5085017;28;19951;-79
2022/01/06 04:34:06;;;;;;;;;;;1.00;99.90;;;;;;5084940;28;20399;-78
2022/01/06 04:36:32;;;;;;;;;;;1.00;99.90;;;;;;5084297;28;19924;-79
2022/01/06 04:39:00;;;;;;;;;;;1.10;99.90;;;;;;5082985;28;19928;-79
2022/01/06 04:41:26;;;;;;;;;;;0.80;99.90;;;;;;5084178;28;19924;-79
2022/01/06 04:43:53;;;;;;;;;;;1.00;99.90;;;;;;5083128;28;19956;-80
2022/01/06 04:46:20;;;;;;;;;;;1.10;92.70;;;;;;5082980;28;19928;-79
2022/01/06 04:48:47;;;;;;;;;;;1.00;99.90;;;;;;5082510;28;19925;-80
2022/01/06 04:51:13;;;;;;;;;;;1.00;99.90;;;;;;5082253;28;19951;-79
2022/01/06 04:53:40;;;;;;;;;;;1.00;99.90;;;;;;5082463;28;19925;-79
2022/01/06 04:56:07;;;;;;;;;;;0.80;99.90;;;;;;5092815;28;19925;-79
2022/01/06 04:58:34;;;;;;;;;;;0.50;99.90;;;;;;5095686;28;19925;-78
2022/01/06 05:01:01;;;;;;;;;;;1.10;99.90;;;;;;5097701;28;19924;-78
2022/01/06 05:03:27;;;;;;;;;;;1.20;99.90;;;;;;5092155;28;20398;-80
2022/01/06 05:05:54;;;;;;;;;;;1.00;99.90;;;;;;5084370;28;19925;-79
2022/01/06 05:08:20;;;;;;;;;;;0.90;99.90;;;;;;5086243;28;19924;-78
2022/01/06 05:10:47;;;;;;;;;;;1.10;99.90;;;;;;5085061;28;19985;-79
2022/01/06 05:13:14;;;;;;;;;;;0.90;99.90;;;;;;5086893;28;19931;-81
2022/01/06 05:15:41;;;;;;;;;;;0.70;99.90;;;;;;5110879;22;19925;-81
2022/01/06 05:18:10;;;;;;;;;;;0.90;99.90;;;;;;5085498;28;19991;-80
2022/01/06 05:20:39;;;;;;;;;;;0.80;99.90;;;;;;5095346;28;19936;-82
2022/01/06 05:23:05;;;;;;;;;;;1.00;99.90;;;;;;5096330;28;19943;-81
2022/01/06 05:25:37;;;;;;;;;;;0.80;99.90;;;;;;5088444;28;19959;-82
2022/01/06 05:28:16;;;;;;;;;;;0.80;99.90;;;;;;5079056;28;19924;-83
2022/01/06 05:30:44;;;;;;;;;;;0.80;99.90;;;;;;5078271;28;19938;-82
2022/01/06 05:33:13;;;;;;;;;;;0.80;99.90;;;;;;5079020;28;19959;-82
2022/01/06 05:35:44;;;;;;;;;;;0.80;99.90;;;;;;5081732;28;19957;-83
2022/01/06 05:38:18;;;;;;;;;;;0.70;99.90;;;;;;5083558;28;19928;-82
2022/01/06 05:40:44;;;;;;;;;;;0.70;99.90;;;;;;5084282;28;19929;-81
2022/01/06 05:43:11;;;;;;;;;;;0.60;99.90;;;;;;5079499;28;20015;-81
2022/01/06 05:45:38;;;;;;;;;;;0.70;99.90;;;;;;5078277;28;19925;-83
2022/01/06 05:48:10;;;;;;;;;;;0.70;99.90;;;;;;5078588;28;19939;-81
2022/01/06 05:50:36;;;;;;;;;;;0.60;99.90;;;;;;5087697;28;19995;-82
2022/01/06 05:53:03;;;;;;;;;;;0.80;99.90;;;;;;5099428;28;19912;-83
2022/01/06 05:55:29;;;;;;;;;;;0.70;99.90;;;;;;5094627;28;19912;-83
2022/01/06 05:57:55;;;;;;;;;;;0.70;99.90;;;;;;5095763;28;19912;-83
2022/01/06 06:00:22;;;;;;;;;;;0.80;99.90;;;;;;5098734;28;19924;-82
2022/01/06 06:02:48;;;;;;;;;;;0.60;99.90;;;;;;5094710;28;19924;-81
2022/01/06 06:05:16;;;;;;;;;;;0.80;99.90;;;;;;5084612;28;20375;-83
2022/01/06 06:07:43;;;;;;;;;;;0.90;99.90;;;;;;5080494;28;19964;-82
2022/01/06 06:10:09;;;;;;;;;;;0.70;99.90;;;;;;5080195;28;19924;-83
2022/01/06 06:12:36;;;;;;;;;;;1.10;99.90;;;;;;5079641;28;19928;-83
2022/01/06 06:15:02;;;;;;;;;;;0.50;99.90;;;;;;5081222;28;19975;-83
2022/01/06 06:17:29;;;;;;;;;;;0.80;99.90;;;;;;5087062;28;19924;-80
2022/01/06 06:19:55;;;;;;;;;;;0.90;99.90;;;;;;5079952;28;19925;-82
2022/01/06 06:22:23;;;;;;;;;;;1.00;99.90;;;;;;5078148;28;19975;-82
2022/01/06 06:24:49;;;;;;;;;;;0.60;99.90;;;;;;5078087;28;19924;-82
2022/01/06 06:27:16;;;;;;;;;;;0.70;99.90;;;;;;5077832;28;20336;-82
2022/01/06 06:29:42;;;;;;;;;;;0.50;99.90;;;;;;5079141;28;19925;-81
2022/01/06 06:32:09;;;;;;;;;;;0.50;99.90;;;;;;5078034;28;19928;-82
2022/01/06 06:34:35;;;;;;;;;;;0.40;99.90;;;;;;5079552;28;19932;-82
2022/01/06 06:37:02;;;;;;;;;;;0.60;99.90;;;;;;5083755;28;19924;-82
2022/01/06 06:39:30;;;;;;;;;;;0.70;99.90;;;;;;5083809;28;19924;-82
2022/01/06 06:41:56;;;;;;;;;;;0.30;99.90;;;;;;5082028;28;19975;-82
2022/01/06 06:44:22;;;;;;;;;;;0.60;99.90;;;;;;5086318;28;19932;-81
2022/01/06 06:46:49;;;;;;;;;;;0.50;99.90;;;;;;5081987;28;19954;-83
2022/01/06 06:49:15;;;;;;;;;;;0.80;99.90;;;;;;5081479;28;19931;-82
2022/01/06 06:51:42;;;;;;;;;;;0.50;99.90;;;;;;5086791;28;19931;-82
2022/01/06 06:54:08;;;;;;;;;;;0.60;99.90;;;;;;5083673;28;19977;-82
2022/01/06 06:56:36;;;;;;;;;;;1.10;99.90;;;;;;5079193;28;19928;-81
2022/01/06 06:59:03;;;;;;;;;;;0.60;99.90;;;;;;5078183;28;19969;-83
2022/01/06 07:01:30;;;;;;;;;;;0.60;99.90;;;;;;5079846;28;19991;-83
2022/01/06 07:03:56;;;;;;;;;;;0.90;99.90;;;;;;5079811;28;19967;-83
2022/01/06 07:06:23;;;;;;;;;;;1.10;99.90;;;;;;5080674;28;20453;-81
2022/01/06 07:08:49;;;;;;;;;;;0.60;99.90;;;;;;5083426;28;20406;-80
2022/01/06 07:11:16;;;;;;;;;;;0.80;99.90;;;;;;5085847;28;19950;-82
2022/01/06 07:13:43;;;;;;;;;;;0.70;99.90;;;;;;5082906;28;19925;-82
2022/01/06 07:16:10;;;;;;;;;;;0.80;99.90;;;;;;5078756;28;20256;-81
2022/01/06 07:18:36;;;;;;;;;;;0.80;99.90;;;;;;5080627;28;19998;-83
2022/01/06 07:21:03;;;;;;;;;;;0.70;99.90;;;;;;5080254;28;20391;-82
2022/01/06 07:23:30;;;;;;;;;;;0.50;99.90;;;;;;5083292;28;19925;-80
2022/01/06 07:25:56;;;;;;;;;;;0.60;99.90;;;;;;5091291;28;19925;-81
2022/01/06 07:28:23;;;;;;;;;;;0.50;99.90;;;;;;5089779;28;20241;-80
2022/01/06 07:30:50;;;;;;;;;;;0.50;99.90;;;;;;5087452;28;20106;-82
2022/01/06 07:33:17;;;;;;;;;;;0.70;99.90;;;;;;5087193;28;19924;-82
2022/01/06 07:35:43;;;;;;;;;;;0.80;99.90;;;;;;5084719;28;19946;-79
2022/01/06 07:38:10;;;;;;;;;;;0.50;99.90;;;;;;5080662;28;19925;-79
2022/01/06 07:40:36;;;;;;;;;;;0.70;99.90;;;;;;5086066;28;19924;-81
2022/01/06 07:43:03;;;;;;;;;;;0.40;99.90;;;;;;5092399;28;19988;-80
2022/01/06 07:45:30;;;;;;;;;;;0.20;99.90;;;;;;5088055;28;20306;-80
2022/01/06 07:48:00;;;;;;;;;;;0.60;99.90;;;;;;5088865;28;19935;-82
2022/01/06 07:50:27;;;;;;;;;;;0.70;99.90;;;;;;5081560;28;19932;-82
2022/01/06 07:52:54;;;;;;;;;;;0.40;99.90;;;;;;5082109;28;19924;-83
2022/01/06 07:55:21;;;;;;;;;;;0.60;99.90;;;;;;5078927;28;19924;-82
2022/01/06 07:57:48;;;;;;;;;;;0.20;99.90;;;;;;5077700;28;20436;-82
2022/01/06 08:00:15;;;;;;;;;;;0.50;99.90;;;;;;5077717;28;20387;-80
2022/01/06 08:02:41;;;;;;;;;;;2.00;99.90;;;;;;5076382;28;19960;-81
2022/01/06 08:05:12;;;;;;;;;;;0.10;99.90;;;;;;5080114;28;19925;-80
2022/01/06 08:07:39;;;;;;;;;;;0.40;99.90;;;;;;5080857;28;19928;-83
2022/01/06 08:10:06;;;;;;;;;;;1.10;99.90;;;;;;5081456;28;19990;-83
2022/01/06 08:12:32;;;;;;;;;;;0.80;99.90;;;;;;5085248;28;19970;-82
2022/01/06 08:14:59;;;;;;;;;;;0.80;99.90;;;;;;5083062;28;19925;-82
2022/01/06 08:17:25;;;;;;;;;;;1.30;99.90;;;;;;5085983;28;19908;-81
2022/01/06 08:19:52;;;;;;;;;;;-0.10;99.90;;;;;;5080487;28;20091;-80
2022/01/06 08:22:21;;;;;;;;;;;-0.60;99.90;;;;;;5080534;28;19931;-81
2022/01/06 08:24:47;;;;;;;;;;;0.70;99.90;;;;;;5081482;28;19928;-81
2022/01/06 08:27:14;;;;;;;;;;;0.00;99.90;;;;;;5083702;28;19935;-82
2022/01/06 08:29:40;;;;;;;;;;;0.60;99.90;;;;;;5089498;28;19932;-81
2022/01/06 08:32:07;;;;;;;;;;;0.50;99.90;;;;;;5089915;28;19932;-81
2022/01/06 08:34:34;;;;;;;;;;;1.00;99.90;;;;;;5090908;28;19990;-80
2022/01/06 08:37:01;;;;;;;;;;;0.80;99.90;;;;;;5092325;28;19925;-82
2022/01/06 08:39:29;;;;;;;;;;;1.50;99.90;;;;;;5085519;28;19946;-82
2022/01/06 08:41:55;;;;;;;;;;;2.00;99.90;;;;;;5080951;28;19929;-83
2022/01/06 08:44:22;;;;;;;;;;;0.90;99.90;;;;;;5081490;28;19974;-83
2022/01/06 08:46:49;;;;;;;;;;;0.80;99.90;;;;;;5080156;28;19932;-82
2022/01/06 08:49:15;;;;;;;;;;;0.50;99.90;;;;;;5083177;28;19992;-82
2022/01/06 08:51:42;;;;;;;;;;;0.40;99.90;;;;;;5081877;28;19942;-81
2022/01/06 08:54:08;;;;;;;;;;;1.00;99.90;;;;;;5083226;28;19924;-81
2022/01/06 08:56:36;;;;;;;;;;;1.10;99.90;;;;;;5082059;28;19972;-80
2022/01/06 08:59:03;;;;;;;;;;;1.10;99.90;;;;;;5087931;28;20002;-80
2022/01/06 09:01:30;;;;;;;;;;;1.30;99.90;;;;;;5084320;28;19928;-83
2022/01/06 09:03:57;;;;;;;;;;;1.20;99.90;;;;;;5082608;28;19928;-82
2022/01/06 09:06:23;;;;;;;;;;;0.30;99.90;;;;;;5081690;28;20015;-81
2022/01/06 09:08:50;;;;;;;;;;;0.50;99.90;;;;;;5084829;28;19935;-81
2022/01/06 09:11:17;;;;;;;;;;;1.20;99.90;;;;;;5099180;28;19925;-81
2022/01/06 09:13:45;;;;;;;;;;;0.80;99.90;;;;;;5094130;28;19925;-80
2022/01/06 09:16:13;;;;;;;;;;;1.50;99.90;;;;;;5085889;28;19924;-82
2022/01/06 09:18:40;;;;;;;;;;;1.60;99.90;;;;;;5097695;28;19925;-82
2022/01/06 09:21:07;;;;;;;;;;;0.50;99.90;;;;;;5096019;28;19924;-82
2022/01/06 09:23:33;;;;;;;;;;;1.70;99.90;;;;;;5085863;28;19947;-82
2022/01/06 09:26:00;;;;;;;;;;;1.50;99.90;;;;;;5082859;28;19946;-81
2022/01/06 09:28:27;;;;;;;;;;;1.80;99.90;;;;;;5082813;28;19970;-82
2022/01/06 09:30:56;;;;;;;;;;;0.80;99.90;;;;;;5081529;28;20273;-82
2022/01/06 09:33:22;;;;;;;;;;;1.80;99.90;;;;;;5081322;28;19989;-83
2022/01/06 09:35:49;;;;;;;;;;;2.00;99.90;;;;;;5081820;28;19924;-80
2022/01/06 09:38:16;;;;;;;;;;;1.70;99.90;;;;;;5080393;28;19946;-81
2022/01/06 09:40:43;;;;;;;;;;;1.70;99.90;;;;;;5080504;28;19977;-81
2022/01/06 09:43:12;;;;;;;;;;;1.60;99.90;;;;;;5085578;28;19925;-79
2022/01/06 09:45:39;;;;;;;;;;;1.50;99.90;;;;;;5088317;28;19925;-79
2022/01/06 09:48:08;;;;;;;;;;;1.40;99.90;;;;;;5081271;28;19928;-81
2022/01/06 09:50:35;;;;;;;;;;;1.80;99.90;;;;;;5090175;28;19928;-82
2022/01/06 09:53:01;;;;;;;;;;;2.10;99.90;;;;;;5099125;28;19924;-81
2022/01/06 09:55:28;;;;;;;;;;;1.80;99.90;;;;;;5099004;28;19912;-80
2022/01/06 09:57:56;;;;;;;;;;;1.90;99.90;;;;;;5098088;28;19912;-80
2022/01/06 10:00:24;;;;;;;;;;;1.90;99.90;;;;;;5098830;28;19924;-80
2022/01/06 10:02:53;;;;;;;;;;;1.80;99.90;;;;;;5098772;28;19924;-78
2022/01/06 10:05:20;;;;;;;;;;;1.80;99.90;;;;;;5089499;28;19928;-80
2022/01/06 10:07:47;;;;;;;;;;;1.70;99.90;;;;;;5081004;28;20311;-81
2022/01/06 10:10:15;;;;;;;;;;;2.00;99.90;;;;;;5081548;28;19925;-83
2022/01/06 10:12:42;;;;;;;;;;;2.00;99.90;;;;;;5079444;28;19978;-82
2022/01/06 10:15:18;;;;;;;;;;;2.10;99.90;;;;;;5078243;28;22476;-81
2022/01/06 10:17:44;;;;;;;;;;;2.10;99.90;;;;;;5079220;28;19959;-82
2022/01/06 10:20:11;;;;;;;;;;;1.60;99.90;;;;;;5080002;28;19972;-81
2022/01/06 10:22:45;;;;;;;;;;;2.10;99.90;;;;;;5078881;28;19959;-81
2022/01/06 10:25:11;;;;;;;;;;;2.20;99.90;;;;;;5080885;28;19925;-82
2022/01/06 10:27:38;;;;;;;;;;;1.80;99.90;;;;;;5088231;28;19936;-80
2022/01/06 10:30:05;;;;;;;;;;;1.70;99.90;;;;;;5090878;28;19925;-82
2022/01/06 10:32:33;;;;;;;;;;;2.30;99.90;;;;;;5092614;28;19924;-82
2022/01/06 10:35:02;;;;;;;;;;;1.20;99.90;;;;;;5087480;28;19924;-80
2022/01/06 10:37:31;;;;;;;;;;;1.30;99.90;;;;;;5086765;28;19931;-81
2022/01/06 10:40:00;;;;;;;;;;;2.20;99.90;;;;;;5081954;28;19928;-82
2022/01/06 10:42:27;;;;;;;;;;;1.60;99.90;;;;;;5079935;28;20433;-79
2022/01/06 10:44:56;;;;;;;;;;;1.80;99.90;;;;;;5080215;28;19924;-82
2022/01/06 10:47:30;;;;;;;;;;;2.50;99.90;;;;;;5080875;28;19924;-83
2022/01/06 10:50:07;;;;;;;;;;;2.70;99.90;;;;;;5078821;28;19975;-83
2022/01/06 10:52:33;;;;;;;;;;;2.50;99.90;;;;;;5078469;28;19924;-81
2022/01/06 10:55:09;;;;;;;;;;;2.30;99.90;;;;;;5077791;28;19929;-81
2022/01/06 10:57:35;;;;;;;;;;;2.50;99.90;;;;;;5079451;28;19924;-82
2022/01/06 11:00:03;;;;;;;;;;;2.70;99.90;;;;;;5079936;28;19924;-82
2022/01/06 11:02:29;;;;;;;;;;;2.60;99.90;;;;;;5078680;28;19925;-81
2022/01/06 11:04:56;;;;;;;;;;;2.70;99.90;;;;;;5078489;28;19982;-82
2022/01/06 11:07:22;;;;;;;;;;;2.40;99.90;;;;;;5079791;28;19924;-82
2022/01/06 11:09:50;;;;;;;;;;;2.60;99.90;;;;;;5079400;28;19925;-82
2022/01/06 11:12:28;;;;;;;;;;;2.70;99.90;;;;;;5078609;28;20027;-84
2022/01/06 11:14:55;;;;;;;;;;;2.90;99.90;;;;;;5079090;28;20299;-82
2022/01/06 11:17:23;;;;;;;;;;;2.70;99.90;;;;;;5015666;22;19934;-80
2022/01/06 11:19:50;;;;;;;;;;;2.80;78.60;;;;;;4977212;28;19986;-80
2022/01/06 11:22:22;;;;;;;;;;;2.80;99.90;;;;;;4973491;28;19953;-79
2022/01/06 11:24:51;;;;;;;;;;;2.70;86.00;;;;;;4974657;28;19984;-79
2022/01/06 11:27:29;;;;;;;;;;;2.70;53.10;;;;;;4982331;28;19926;-79
2022/01/06 11:30:07;;;;;;;;;;;2.80;99.90;;;;;;4984070;28;19930;-79
2022/01/06 11:32:34;;;;;;;;;;;3.00;99.90;;;;;;4983616;28;19940;-79
2022/01/06 11:35:02;;;;;;;;;;;2.90;75.90;;;;;;4977024;28;19926;-79
2022/01/06 11:37:39;;;;;;;;;;;2.70;94.60;;;;;;4977255;28;19926;-80
2022/01/06 11:40:06;;;;;;;;;;;2.80;99.30;;;;;;4979418;28;19926;-80
2022/01/06 11:42:33;;;;;;;;;;;3.10;99.90;;;;;;4980395;28;19993;-80
2022/01/06 11:45:00;;;;;;;;;;;2.90;44.60;;;;;;4982518;28;20296;-81
2022/01/06 11:47:31;;;;;;;;;;;2.80;94.60;;;;;;4980517;28;20027;-81
2022/01/06 11:50:06;;;;;;;;;;;3.00;97.60;;;;;;4982000;28;19938;-78
2022/01/06 11:52:33;;;;;;;;;;;3.00;99.90;;;;;;4981363;28;19930;-80
2022/01/06 11:54:59;;;;;;;;;;;3.00;19.20;;;;;;4981135;28;19969;-80
2022/01/06 11:57:30;;;;;;;;;;;2.80;99.90;;;;;;4981365;28;19966;-80
2022/01/06 11:59:58;;;;;;;;;;;3.10;33.00;;;;;;4980555;28;19930;-81
2022/01/06 12:02:24;;;;;;;;;;;3.00;1.00;;;;;;4980988;28;19927;-80
2022/01/06 12:04:58;;;;;;;;;;;3.00;21.50;;;;;;4979331;28;19962;-80
2022/01/06 12:07:24;;;;;;;;;;;3.10;1.00;;;;;;4979438;28;19941;-81
2022/01/06 12:10:02;;;;;;;;;;;2.70;99.90;;;;;;4980363;28;19926;-79
2022/01/06 12:12:32;;;;;;;;;;;2.90;1.00;;;;;;4979603;28;19926;-80
2022/01/06 12:15:06;;;;;;;;;;;3.00;1.00;;;;;;4979519;28;19966;-80
2022/01/06 12:17:33;;;;;;;;;;;3.00;1.00;;;;;;4984756;28;19936;-79
2022/01/06 12:19:59;;;;;;;;;;;3.00;99.90;;;;;;4988533;28;19933;-79
2022/01/06 12:22:27;;;;;;;;;;;2.70;1.00;;;;;;4986957;28;19933;-79
2022/01/06 12:24:58;;;;;;;;;;;3.20;99.90;;;;;;4987319;28;20013;-79
2022/01/06 12:27:26;;;;;;;;;;;2.80;1.00;;;;;;4981999;28;19996;-81
2022/01/06 12:29:53;;;;;;;;;;;3.00;99.90;;;;;;4979852;28;19992;-80
2022/01/06 12:32:21;;;;;;;;;;;3.80;99.90;;;;;;4979890;28;19927;-79
2022/01/06 12:34:52;;;;;;;;;;;3.30;1.00;;;;;;4979182;28;19934;-80
2022/01/06 12:37:24;;;;;;;;;;;3.00;1.00;;;;;;4978704;28;19926;-79
2022/01/06 12:39:50;;;;;;;;;;;3.10;1.00;;;;;;4982316;28;19956;-80
2022/01/06 12:42:17;;;;;;;;;;;3.10;99.90;;;;;;4980844;28;19945;-79
2022/01/06 12:44:43;;;;;;;;;;;3.20;99.90;;;;;;4979900;28;19926;-78
2022/01/06 12:47:10;;;;;;;;;;;3.60;1.00;;;;;;4986352;28;19926;-77
2022/01/06 12:49:38;;;;;;;;;;;3.10;99.90;;;;;;4983690;28;19977;-77
2022/01/06 12:52:06;;;;;;;;;;;3.00;99.90;;;;;;4985911;28;19933;-80
2022/01/06 12:54:34;;;;;;;;;;;3.40;1.00;;;;;;4980042;28;20296;-80
2022/01/06 12:57:02;;;;;;;;;;;3.10;1.00;;;;;;4978828;28;20423;-80
2022/01/06 12:59:33;;;;;;;;;;;3.20;99.90;;;;;;4978449;28;19927;-80
2022/01/06 13:02:02;;;;;;;;;;;3.10;1.00;;;;;;4978652;28;19926;-80
2022/01/06 13:04:29;;;;;;;;;;;3.00;1.00;;;;;;4978424;28;19926;-79
2022/01/06 13:06:58;;;;;;;;;;;3.10;41.90;;;;;;4978573;28;19926;-80
2022/01/06 13:09:25;;;;;;;;;;;3.10;99.90;;;;;;4978516;28;19973;-80
2022/01/06 13:11:53;;;;;;;;;;;3.00;99.90;;;;;;4979183;28;19926;-80
2022/01/06 13:14:26;;;;;;;;;;;3.10;99.90;;;;;;4978887;28;20339;-81
2022/01/06 13:16:53;;;;;;;;;;;3.30;99.90;;;;;;4987684;28;19933;-79
2022/01/06 13:19:20;;;;;;;;;;;3.10;99.90;;;;;;4982550;28;19926;-81
2022/01/06 13:21:48;;;;;;;;;;;3.40;99.90;;;;;;4979105;28;20410;-81
2022/01/06 13:24:18;;;;;;;;;;;3.00;99.90;;;;;;4978460;28;20067;-80
2022/01/06 13:26:49;;;;;;;;;;;3.10;99.90;;;;;;4977269;28;20385;-80
2022/01/06 13:29:24;;;;;;;;;;;3.30;99.90;;;;;;4978113;28;19933;-80
2022/01/06 13:31:56;;;;;;;;;;;3.10;99.90;;;;;;4978232;28;19973;-80
2022/01/06 13:34:23;;;;;;;;;;;2.90;99.90;;;;;;4978870;28;19969;-79
2022/01/06 13:36:49;;;;;;;;;;;3.10;99.90;;;;;;4977849;28;19926;-80
2022/01/06 13:39:17;;;;;;;;;;;3.20;99.90;;;;;;4978156;28;19953;-81
2022/01/06 13:41:46;;;;;;;;;;;3.00;99.90;;;;;;4977813;28;19949;-80
2022/01/06 13:44:13;;;;;;;;;;;3.20;99.90;;;;;;4977212;28;19926;-81
2022/01/06 13:46:53;;;;;;;;;;;3.10;99.90;;;;;;4978351;28;19988;-81
2022/01/06 13:52:16;;;;;;;;;;;3.00;1.00;;;;;;4978697;28;20308;-79
2022/01/06 13:54:43;;;;;;;;;;;3.20;99.90;;;;;;4979121;28;19945;-79
2022/01/06 13:57:11;;;;;;;;;;;3.20;99.90;;;;;;4978522;28;19980;-80
2022/01/06 13:59:39;;;;;;;;;;;3.20;1.00;;;;;;4979057;28;19933;-80
2022/01/06 14:02:05;;;;;;;;;;;3.10;99.90;;;;;;4977208;28;19926;-80
2022/01/06 14:04:33;;;;;;;;;;;3.10;8.70;;;;;;4978118;28;19926;-80
2022/01/06 14:07:00;;;;;;;;;;;2.80;99.90;;;;;;4979922;28;20419;-80
2022/01/06 14:09:26;;;;;;;;;;;2.90;99.90;;;;;;4980725;28;19937;-80
2022/01/06 14:11:54;;;;;;;;;;;3.10;99.90;;;;;;4979560;28;20419;-80
2022/01/06 14:14:21;;;;;;;;;;;2.90;1.00;;;;;;4979447;28;19926;-80
2022/01/06 14:16:47;;;;;;;;;;;2.70;1.00;;;;;;4978564;28;19927;-81
2022/01/06 14:19:14;;;;;;;;;;;3.10;1.00;;;;;;4985023;28;19926;-79
2022/01/06 14:21:40;;;;;;;;;;;2.90;1.00;;;;;;4984120;28;19926;-79
2022/01/06 14:24:07;;;;;;;;;;;3.10;1.00;;;;;;4984114;28;19926;-80
2022/01/06 14:26:34;;;;;;;;;;;3.00;1.00;;;;;;4983458;28;19952;-80
2022/01/06 14:29:01;;;;;;;;;;;2.90;1.00;;;;;;4981777;28;19926;-81
2022/01/06 14:31:28;;;;;;;;;;;2.70;1.00;;;;;;4978945;28;19930;-80
2022/01/06 14:33:55;;;;;;;;;;;2.70;1.00;;;;;;4979248;28;19957;-81
2022/01/06 14:36:21;;;;;;;;;;;2.80;1.10;;;;;;4979259;28;19926;-81
2022/01/06 14:38:48;;;;;;;;;;;2.80;1.00;;;;;;4977616;28;19926;-80